sensor_id;sensor_type;location;lat;lon;timestamp;P1;durP1;ratioP1;P2;durP2;ratioP2
16460;SDS011;8341;42.048;24.650;2023-07-02T00:01:56;5.72;;;4.40;;
16460;SDS011;8341;42.048;24.650;2023-07-02T00:04:23;6.63;;;4.95;;
16460;SDS011;8341;42.048;24.650;2023-07-02T00:06:50;8.73;;;4.63;;
16460;SDS011;8341;42.048;24.650;2023-07-02T00:09:17;6.32;;;4.80;;
16460;SDS011;8341;42.048;24.650;2023-07-02T00:11:44;6.78;;;5.40;;
16460;SDS011;8341;42.048;24.650;2023-07-02T00:14:12;9.48;;;5.82;;
16460;SDS011;8341;42.048;24.650;2023-07-02T00:16:44;8.95;;;5.43;;
16460;SDS011;8341;42.048;24.650;2023-07-02T00:19:13;8.40;;;4.75;;
16460;SDS011;8341;42.048;24.650;2023-07-02T00:21:40;8.70;;;5.45;;
16460;SDS011;8341;42.048;24.650;2023-07-02T00:24:07;8.30;;;5.18;;
16460;SDS011;8341;42.048;24.650;2023-07-02T00:26:35;9.90;;;5.32;;
16460;SDS011;8341;42.048;24.650;2023-07-02T00:29:03;6.43;;;5.13;;
16460;SDS011;8341;42.048;24.650;2023-07-02T00:31:31;7.28;;;5.40;;
16460;SDS011;8341;42.048;24.650;2023-07-02T00:33:58;7.65;;;4.95;;
16460;SDS011;8341;42.048;24.650;2023-07-02T00:36:27;8.88;;;4.80;;
16460;SDS011;8341;42.048;24.650;2023-07-02T00:38:54;7.53;;;4.80;;
16460;SDS011;8341;42.048;24.650;2023-07-02T00:41:21;8.77;;;5.38;;
16460;SDS011;8341;42.048;24.650;2023-07-02T00:43:48;9.15;;;5.30;;
16460;SDS011;8341;42.048;24.650;2023-07-02T00:46:19;9.65;;;5.55;;
16460;SDS011;8341;42.048;24.650;2023-07-02T00:48:47;7.95;;;5.15;;
16460;SDS011;8341;42.048;24.650;2023-07-02T00:51:16;6.68;;;5.43;;
16460;SDS011;8341;42.048;24.650;2023-07-02T00:53:46;8.40;;;5.65;;
16460;SDS011;8341;42.048;24.650;2023-07-02T00:56:14;8.45;;;4.80;;
16460;SDS011;8341;42.048;24.650;2023-07-02T00:58:42;8.07;;;5.38;;
16460;SDS011;8341;42.048;24.650;2023-07-02T01:01:12;5.80;;;4.72;;
16460;SDS011;8341;42.048;24.650;2023-07-02T01:03:39;7.85;;;5.18;;
16460;SDS011;8341;42.048;24.650;2023-07-02T01:06:19;10.73;;;5.38;;
16460;SDS011;8341;42.048;24.650;2023-07-02T01:08:51;7.82;;;4.97;;
16460;SDS011;8341;42.048;24.650;2023-07-02T01:11:20;10.55;;;5.22;;
16460;SDS011;8341;42.048;24.650;2023-07-02T01:13:50;7.07;;;5.10;;
16460;SDS011;8341;42.048;24.650;2023-07-02T01:16:21;10.35;;;5.15;;
16460;SDS011;8341;42.048;24.650;2023-07-02T01:18:49;7.38;;;5.07;;
16460;SDS011;8341;42.048;24.650;2023-07-02T01:21:22;9.32;;;5.38;;
16460;SDS011;8341;42.048;24.650;2023-07-02T01:23:51;6.90;;;5.00;;
16460;SDS011;8341;42.048;24.650;2023-07-02T01:26:18;7.20;;;5.35;;
16460;SDS011;8341;42.048;24.650;2023-07-02T01:28:46;8.25;;;5.25;;
16460;SDS011;8341;42.048;24.650;2023-07-02T01:31:12;10.00;;;4.95;;
16460;SDS011;8341;42.048;24.650;2023-07-02T01:33:40;6.57;;;4.75;;
16460;SDS011;8341;42.048;24.650;2023-07-02T01:36:07;8.55;;;5.43;;
16460;SDS011;8341;42.048;24.650;2023-07-02T01:38:35;8.85;;;5.18;;
16460;SDS011;8341;42.048;24.650;2023-07-02T01:41:02;8.30;;;5.28;;
16460;SDS011;8341;42.048;24.650;2023-07-02T01:43:29;6.05;;;5.00;;
16460;SDS011;8341;42.048;24.650;2023-07-02T01:45:56;7.90;;;5.65;;
16460;SDS011;8341;42.048;24.650;2023-07-02T01:48:24;9.13;;;5.00;;
16460;SDS011;8341;42.048;24.650;2023-07-02T01:50:51;7.70;;;5.90;;
16460;SDS011;8341;42.048;24.650;2023-07-02T01:53:18;8.25;;;5.50;;
16460;SDS011;8341;42.048;24.650;2023-07-02T01:55:46;7.60;;;5.45;;
16460;SDS011;8341;42.048;24.650;2023-07-02T01:58:14;7.22;;;5.03;;
16460;SDS011;8341;42.048;24.650;2023-07-02T02:00:41;7.15;;;5.35;;
16460;SDS011;8341;42.048;24.650;2023-07-02T02:03:07;9.00;;;5.60;;
16460;SDS011;8341;42.048;24.650;2023-07-02T02:05:34;9.65;;;5.13;;
16460;SDS011;8341;42.048;24.650;2023-07-02T02:08:01;9.55;;;5.07;;
16460;SDS011;8341;42.048;24.650;2023-07-02T02:10:28;9.65;;;5.32;;
16460;SDS011;8341;42.048;24.650;2023-07-02T02:12:56;11.20;;;5.85;;
16460;SDS011;8341;42.048;24.650;2023-07-02T02:15:23;9.60;;;5.45;;
16460;SDS011;8341;42.048;24.650;2023-07-02T02:17:50;7.70;;;5.20;;
16460;SDS011;8341;42.048;24.650;2023-07-02T02:20:17;7.50;;;5.50;;
16460;SDS011;8341;42.048;24.650;2023-07-02T02:22:44;8.60;;;5.47;;
16460;SDS011;8341;42.048;24.650;2023-07-02T02:25:11;7.82;;;5.22;;
16460;SDS011;8341;42.048;24.650;2023-07-02T02:27:38;8.10;;;5.28;;
16460;SDS011;8341;42.048;24.650;2023-07-02T02:30:07;8.00;;;5.82;;
16460;SDS011;8341;42.048;24.650;2023-07-02T02:32:34;7.63;;;5.32;;
16460;SDS011;8341;42.048;24.650;2023-07-02T02:35:02;8.52;;;5.43;;
16460;SDS011;8341;42.048;24.650;2023-07-02T02:37:29;8.90;;;5.78;;
16460;SDS011;8341;42.048;24.650;2023-07-02T02:39:57;7.88;;;5.45;;
16460;SDS011;8341;42.048;24.650;2023-07-02T02:42:24;9.70;;;6.28;;
16460;SDS011;8341;42.048;24.650;2023-07-02T02:44:51;8.90;;;5.35;;
16460;SDS011;8341;42.048;24.650;2023-07-02T02:47:20;9.25;;;5.50;;
16460;SDS011;8341;42.048;24.650;2023-07-02T02:49:47;7.85;;;5.80;;
16460;SDS011;8341;42.048;24.650;2023-07-02T02:52:13;10.23;;;6.25;;
16460;SDS011;8341;42.048;24.650;2023-07-02T02:54:40;7.55;;;5.22;;
16460;SDS011;8341;42.048;24.650;2023-07-02T02:57:07;7.65;;;5.80;;
16460;SDS011;8341;42.048;24.650;2023-07-02T02:59:34;8.30;;;5.40;;
16460;SDS011;8341;42.048;24.650;2023-07-02T03:02:01;9.18;;;5.13;;
16460;SDS011;8341;42.048;24.650;2023-07-02T03:04:29;8.55;;;5.65;;
16460;SDS011;8341;42.048;24.650;2023-07-02T03:06:56;8.48;;;5.50;;
16460;SDS011;8341;42.048;24.650;2023-07-02T03:09:22;8.68;;;5.53;;
16460;SDS011;8341;42.048;24.650;2023-07-02T03:11:49;8.13;;;5.95;;
16460;SDS011;8341;42.048;24.650;2023-07-02T03:14:16;12.10;;;6.03;;
16460;SDS011;8341;42.048;24.650;2023-07-02T03:16:43;11.80;;;6.00;;
16460;SDS011;8341;42.048;24.650;2023-07-02T03:19:11;8.43;;;5.80;;
16460;SDS011;8341;42.048;24.650;2023-07-02T03:21:41;9.02;;;6.30;;
16460;SDS011;8341;42.048;24.650;2023-07-02T03:24:08;8.25;;;6.07;;
16460;SDS011;8341;42.048;24.650;2023-07-02T03:26:37;10.18;;;5.88;;
16460;SDS011;8341;42.048;24.650;2023-07-02T03:29:04;9.23;;;5.65;;
16460;SDS011;8341;42.048;24.650;2023-07-02T03:31:30;9.90;;;5.82;;
16460;SDS011;8341;42.048;24.650;2023-07-02T03:33:57;8.20;;;5.85;;
16460;SDS011;8341;42.048;24.650;2023-07-02T03:36:24;8.98;;;5.65;;
16460;SDS011;8341;42.048;24.650;2023-07-02T03:38:52;9.90;;;5.95;;
16460;SDS011;8341;42.048;24.650;2023-07-02T03:41:19;8.10;;;5.25;;
16460;SDS011;8341;42.048;24.650;2023-07-02T03:43:46;8.55;;;5.80;;
16460;SDS011;8341;42.048;24.650;2023-07-02T03:46:13;7.90;;;5.65;;
16460;SDS011;8341;42.048;24.650;2023-07-02T03:48:40;10.63;;;5.85;;
16460;SDS011;8341;42.048;24.650;2023-07-02T03:51:07;10.73;;;5.70;;
16460;SDS011;8341;42.048;24.650;2023-07-02T03:53:34;11.13;;;6.00;;
16460;SDS011;8341;42.048;24.650;2023-07-02T03:56:02;9.38;;;6.03;;
16460;SDS011;8341;42.048;24.650;2023-07-02T03:58:29;9.80;;;5.25;;
16460;SDS011;8341;42.048;24.650;2023-07-02T04:00:56;9.85;;;5.47;;
16460;SDS011;8341;42.048;24.650;2023-07-02T04:03:23;8.35;;;5.38;;
16460;SDS011;8341;42.048;24.650;2023-07-02T04:05:49;10.85;;;5.88;;
16460;SDS011;8341;42.048;24.650;2023-07-02T04:08:16;10.07;;;7.22;;
16460;SDS011;8341;42.048;24.650;2023-07-02T04:10:46;11.75;;;8.73;;
16460;SDS011;8341;42.048;24.650;2023-07-02T04:13:14;9.48;;;5.28;;
16460;SDS011;8341;42.048;24.650;2023-07-02T04:15:41;13.52;;;8.82;;
16460;SDS011;8341;42.048;24.650;2023-07-02T04:18:08;10.23;;;6.13;;
16460;SDS011;8341;42.048;24.650;2023-07-02T04:20:34;12.25;;;8.70;;
16460;SDS011;8341;42.048;24.650;2023-07-02T04:23:03;10.27;;;7.30;;
16460;SDS011;8341;42.048;24.650;2023-07-02T04:25:30;10.98;;;7.60;;
16460;SDS011;8341;42.048;24.650;2023-07-02T04:27:57;8.65;;;5.55;;
16460;SDS011;8341;42.048;24.650;2023-07-02T04:30:25;9.13;;;5.47;;
16460;SDS011;8341;42.048;24.650;2023-07-02T04:32:52;7.97;;;5.80;;
16460;SDS011;8341;42.048;24.650;2023-07-02T04:35:19;13.55;;;8.82;;
16460;SDS011;8341;42.048;24.650;2023-07-02T04:37:46;11.73;;;6.97;;
16460;SDS011;8341;42.048;24.650;2023-07-02T04:40:12;11.82;;;5.75;;
16460;SDS011;8341;42.048;24.650;2023-07-02T04:42:41;14.40;;;10.25;;
16460;SDS011;8341;42.048;24.650;2023-07-02T04:45:12;12.88;;;8.60;;
16460;SDS011;8341;42.048;24.650;2023-07-02T04:47:41;10.25;;;5.60;;
16460;SDS011;8341;42.048;24.650;2023-07-02T04:50:09;7.93;;;5.55;;
16460;SDS011;8341;42.048;24.650;2023-07-02T04:52:36;7.53;;;5.65;;
16460;SDS011;8341;42.048;24.650;2023-07-02T04:55:03;20.95;;;16.23;;
16460;SDS011;8341;42.048;24.650;2023-07-02T04:57:31;8.25;;;5.57;;
16460;SDS011;8341;42.048;24.650;2023-07-02T04:59:58;9.30;;;6.25;;
16460;SDS011;8341;42.048;24.650;2023-07-02T05:02:25;8.73;;;5.93;;
16460;SDS011;8341;42.048;24.650;2023-07-02T05:04:53;7.15;;;5.43;;
16460;SDS011;8341;42.048;24.650;2023-07-02T05:07:20;9.70;;;5.85;;
16460;SDS011;8341;42.048;24.650;2023-07-02T05:09:47;12.70;;;10.10;;
16460;SDS011;8341;42.048;24.650;2023-07-02T05:12:16;12.90;;;8.02;;
16460;SDS011;8341;42.048;24.650;2023-07-02T05:17:30;9.13;;;5.70;;
16460;SDS011;8341;42.048;24.650;2023-07-02T05:20:01;8.93;;;6.00;;
16460;SDS011;8341;42.048;24.650;2023-07-02T05:22:29;10.05;;;6.05;;
16460;SDS011;8341;42.048;24.650;2023-07-02T05:24:56;8.38;;;6.07;;
16460;SDS011;8341;42.048;24.650;2023-07-02T05:27:23;8.77;;;5.35;;
16460;SDS011;8341;42.048;24.650;2023-07-02T05:29:50;9.05;;;5.03;;
16460;SDS011;8341;42.048;24.650;2023-07-02T05:32:16;9.27;;;5.80;;
16460;SDS011;8341;42.048;24.650;2023-07-02T05:34:43;8.38;;;5.70;;
16460;SDS011;8341;42.048;24.650;2023-07-02T05:37:12;8.40;;;5.63;;
16460;SDS011;8341;42.048;24.650;2023-07-02T05:39:40;11.50;;;5.75;;
16460;SDS011;8341;42.048;24.650;2023-07-02T05:42:07;9.50;;;6.30;;
16460;SDS011;8341;42.048;24.650;2023-07-02T05:44:34;9.13;;;6.60;;
16460;SDS011;8341;42.048;24.650;2023-07-02T05:47:01;12.38;;;9.45;;
16460;SDS011;8341;42.048;24.650;2023-07-02T05:49:28;12.00;;;9.18;;
16460;SDS011;8341;42.048;24.650;2023-07-02T05:51:54;10.38;;;8.35;;
16460;SDS011;8341;42.048;24.650;2023-07-02T05:54:23;10.75;;;7.75;;
16460;SDS011;8341;42.048;24.650;2023-07-02T05:56:49;11.77;;;8.32;;
16460;SDS011;8341;42.048;24.650;2023-07-02T05:59:16;11.48;;;7.50;;
16460;SDS011;8341;42.048;24.650;2023-07-02T06:01:44;13.65;;;6.22;;
16460;SDS011;8341;42.048;24.650;2023-07-02T06:04:11;8.82;;;6.53;;
16460;SDS011;8341;42.048;24.650;2023-07-02T06:06:38;9.20;;;6.28;;
16460;SDS011;8341;42.048;24.650;2023-07-02T06:09:05;8.60;;;6.22;;
16460;SDS011;8341;42.048;24.650;2023-07-02T06:11:34;9.82;;;6.68;;
16460;SDS011;8341;42.048;24.650;2023-07-02T06:14:02;7.35;;;5.97;;
16460;SDS011;8341;42.048;24.650;2023-07-02T06:16:29;7.38;;;6.13;;
16460;SDS011;8341;42.048;24.650;2023-07-02T06:18:56;7.53;;;5.88;;
16460;SDS011;8341;42.048;24.650;2023-07-02T06:21:23;8.52;;;5.28;;
16460;SDS011;8341;42.048;24.650;2023-07-02T06:23:54;8.40;;;6.05;;
16460;SDS011;8341;42.048;24.650;2023-07-02T06:26:21;7.43;;;6.15;;
16460;SDS011;8341;42.048;24.650;2023-07-02T06:28:49;7.32;;;5.78;;
16460;SDS011;8341;42.048;24.650;2023-07-02T06:31:16;8.45;;;6.35;;
16460;SDS011;8341;42.048;24.650;2023-07-02T06:33:43;7.68;;;5.80;;
16460;SDS011;8341;42.048;24.650;2023-07-02T06:36:10;10.20;;;6.93;;
16460;SDS011;8341;42.048;24.650;2023-07-02T06:38:38;9.57;;;7.05;;
16460;SDS011;8341;42.048;24.650;2023-07-02T06:41:05;8.05;;;5.88;;
16460;SDS011;8341;42.048;24.650;2023-07-02T06:43:32;10.95;;;5.95;;
16460;SDS011;8341;42.048;24.650;2023-07-02T06:46:00;7.72;;;5.82;;
16460;SDS011;8341;42.048;24.650;2023-07-02T06:48:27;7.70;;;6.07;;
16460;SDS011;8341;42.048;24.650;2023-07-02T06:50:55;8.20;;;5.78;;
16460;SDS011;8341;42.048;24.650;2023-07-02T06:53:22;8.77;;;5.80;;
16460;SDS011;8341;42.048;24.650;2023-07-02T06:55:49;8.82;;;5.60;;
16460;SDS011;8341;42.048;24.650;2023-07-02T06:58:16;9.20;;;6.30;;
16460;SDS011;8341;42.048;24.650;2023-07-02T07:00:42;9.07;;;6.63;;
16460;SDS011;8341;42.048;24.650;2023-07-02T07:03:11;8.73;;;6.70;;
16460;SDS011;8341;42.048;24.650;2023-07-02T07:05:38;8.90;;;6.55;;
16460;SDS011;8341;42.048;24.650;2023-07-02T07:08:05;7.97;;;7.07;;
16460;SDS011;8341;42.048;24.650;2023-07-02T07:10:31;11.13;;;7.35;;
16460;SDS011;8341;42.048;24.650;2023-07-02T07:12:59;11.98;;;6.75;;
16460;SDS011;8341;42.048;24.650;2023-07-02T07:15:29;10.20;;;7.10;;
16460;SDS011;8341;42.048;24.650;2023-07-02T07:17:58;9.57;;;7.45;;
16460;SDS011;8341;42.048;24.650;2023-07-02T07:20:26;9.65;;;7.47;;
16460;SDS011;8341;42.048;24.650;2023-07-02T07:22:53;10.80;;;7.50;;
16460;SDS011;8341;42.048;24.650;2023-07-02T07:25:20;11.70;;;8.02;;
16460;SDS011;8341;42.048;24.650;2023-07-02T07:27:47;11.05;;;8.13;;
16460;SDS011;8341;42.048;24.650;2023-07-02T07:30:13;10.43;;;8.63;;
16460;SDS011;8341;42.048;24.650;2023-07-02T07:32:40;11.10;;;7.75;;
16460;SDS011;8341;42.048;24.650;2023-07-02T07:35:07;12.27;;;7.55;;
16460;SDS011;8341;42.048;24.650;2023-07-02T07:37:36;10.02;;;7.55;;
16460;SDS011;8341;42.048;24.650;2023-07-02T07:40:03;9.02;;;7.35;;
16460;SDS011;8341;42.048;24.650;2023-07-02T07:42:31;10.15;;;7.45;;
16460;SDS011;8341;42.048;24.650;2023-07-02T07:44:57;14.48;;;7.03;;
16460;SDS011;8341;42.048;24.650;2023-07-02T07:47:24;9.02;;;7.25;;
16460;SDS011;8341;42.048;24.650;2023-07-02T07:49:51;9.85;;;6.75;;
16460;SDS011;8341;42.048;24.650;2023-07-02T07:52:18;9.80;;;7.70;;
16460;SDS011;8341;42.048;24.650;2023-07-02T07:54:46;9.75;;;7.35;;
16460;SDS011;8341;42.048;24.650;2023-07-02T07:57:13;9.55;;;7.07;;
16460;SDS011;8341;42.048;24.650;2023-07-02T07:59:40;11.25;;;7.32;;
16460;SDS011;8341;42.048;24.650;2023-07-02T08:02:07;10.80;;;7.70;;
16460;SDS011;8341;42.048;24.650;2023-07-02T08:04:34;10.55;;;7.60;;
16460;SDS011;8341;42.048;24.650;2023-07-02T08:07:01;9.07;;;7.78;;
16460;SDS011;8341;42.048;24.650;2023-07-02T08:09:29;10.50;;;7.45;;
16460;SDS011;8341;42.048;24.650;2023-07-02T08:11:57;11.98;;;8.07;;
16460;SDS011;8341;42.048;24.650;2023-07-02T08:14:24;9.35;;;7.05;;
16460;SDS011;8341;42.048;24.650;2023-07-02T08:16:51;9.43;;;7.70;;
16460;SDS011;8341;42.048;24.650;2023-07-02T08:19:17;9.55;;;7.60;;
16460;SDS011;8341;42.048;24.650;2023-07-02T08:21:45;9.07;;;7.07;;
16460;SDS011;8341;42.048;24.650;2023-07-02T08:24:12;9.73;;;7.55;;
16460;SDS011;8341;42.048;24.650;2023-07-02T08:26:39;10.23;;;6.75;;
16460;SDS011;8341;42.048;24.650;2023-07-02T08:29:07;10.20;;;7.65;;
16460;SDS011;8341;42.048;24.650;2023-07-02T08:31:33;9.73;;;7.13;;
16460;SDS011;8341;42.048;24.650;2023-07-02T08:34:01;9.13;;;6.40;;
16460;SDS011;8341;42.048;24.650;2023-07-02T08:36:28;8.98;;;6.85;;
16460;SDS011;8341;42.048;24.650;2023-07-02T08:38:54;8.90;;;6.43;;
16460;SDS011;8341;42.048;24.650;2023-07-02T08:41:21;10.40;;;6.72;;
16460;SDS011;8341;42.048;24.650;2023-07-02T08:43:48;8.18;;;6.45;;
16460;SDS011;8341;42.048;24.650;2023-07-02T08:46:18;7.30;;;6.10;;
16460;SDS011;8341;42.048;24.650;2023-07-02T08:48:46;8.57;;;6.50;;
16460;SDS011;8341;42.048;24.650;2023-07-02T08:51:13;8.48;;;6.55;;
16460;SDS011;8341;42.048;24.650;2023-07-02T08:53:40;10.32;;;6.90;;
16460;SDS011;8341;42.048;24.650;2023-07-02T08:56:06;7.80;;;6.00;;
16460;SDS011;8341;42.048;24.650;2023-07-02T08:58:33;9.20;;;6.28;;
16460;SDS011;8341;42.048;24.650;2023-07-02T09:01:03;8.05;;;6.40;;
16460;SDS011;8341;42.048;24.650;2023-07-02T09:03:33;7.25;;;6.07;;
16460;SDS011;8341;42.048;24.650;2023-07-02T09:06:02;9.02;;;6.93;;
16460;SDS011;8341;42.048;24.650;2023-07-02T09:08:29;8.15;;;6.20;;
16460;SDS011;8341;42.048;24.650;2023-07-02T09:11:07;7.60;;;6.00;;
16460;SDS011;8341;42.048;24.650;2023-07-02T09:13:44;6.97;;;6.28;;
16460;SDS011;8341;42.048;24.650;2023-07-02T09:16:21;8.30;;;6.22;;
16460;SDS011;8341;42.048;24.650;2023-07-02T09:18:56;9.32;;;6.68;;
16460;SDS011;8341;42.048;24.650;2023-07-02T09:21:25;9.00;;;6.72;;
16460;SDS011;8341;42.048;24.650;2023-07-02T09:23:52;8.20;;;6.40;;
16460;SDS011;8341;42.048;24.650;2023-07-02T09:26:19;8.52;;;7.05;;
16460;SDS011;8341;42.048;24.650;2023-07-02T09:28:46;9.93;;;7.10;;
16460;SDS011;8341;42.048;24.650;2023-07-02T09:31:13;9.32;;;7.53;;
16460;SDS011;8341;42.048;24.650;2023-07-02T09:33:41;9.30;;;7.28;;
16460;SDS011;8341;42.048;24.650;2023-07-02T09:36:09;8.45;;;6.60;;
16460;SDS011;8341;42.048;24.650;2023-07-02T09:38:37;8.27;;;6.80;;
16460;SDS011;8341;42.048;24.650;2023-07-02T09:41:05;12.63;;;10.07;;
16460;SDS011;8341;42.048;24.650;2023-07-02T09:43:33;10.48;;;9.27;;
16460;SDS011;8341;42.048;24.650;2023-07-02T09:46:00;9.95;;;8.57;;
16460;SDS011;8341;42.048;24.650;2023-07-02T09:48:27;14.57;;;9.05;;
16460;SDS011;8341;42.048;24.650;2023-07-02T09:50:57;17.95;;;15.55;;
16460;SDS011;8341;42.048;24.650;2023-07-02T09:53:28;19.30;;;14.95;;
16460;SDS011;8341;42.048;24.650;2023-07-02T09:55:55;13.43;;;9.73;;
16460;SDS011;8341;42.048;24.650;2023-07-02T09:58:22;9.50;;;8.60;;
16460;SDS011;8341;42.048;24.650;2023-07-02T10:00:49;10.57;;;8.52;;
16460;SDS011;8341;42.048;24.650;2023-07-02T10:03:16;13.23;;;9.43;;
16460;SDS011;8341;42.048;24.650;2023-07-02T10:05:43;12.82;;;9.70;;
16460;SDS011;8341;42.048;24.650;2023-07-02T10:08:13;10.55;;;8.05;;
16460;SDS011;8341;42.048;24.650;2023-07-02T10:10:44;8.57;;;7.65;;
16460;SDS011;8341;42.048;24.650;2023-07-02T10:13:11;10.55;;;7.28;;
16460;SDS011;8341;42.048;24.650;2023-07-02T10:15:37;9.23;;;7.22;;
16460;SDS011;8341;42.048;24.650;2023-07-02T10:18:05;10.65;;;7.53;;
16460;SDS011;8341;42.048;24.650;2023-07-02T10:20:32;8.43;;;7.53;;
16460;SDS011;8341;42.048;24.650;2023-07-02T10:23:00;9.30;;;7.70;;
16460;SDS011;8341;42.048;24.650;2023-07-02T10:25:28;11.52;;;8.63;;
16460;SDS011;8341;42.048;24.650;2023-07-02T10:27:58;11.73;;;8.07;;
16460;SDS011;8341;42.048;24.650;2023-07-02T10:30:32;13.65;;;8.55;;
16460;SDS011;8341;42.048;24.650;2023-07-02T10:33:06;10.85;;;7.60;;
16460;SDS011;8341;42.048;24.650;2023-07-02T10:35:34;10.38;;;7.43;;
16460;SDS011;8341;42.048;24.650;2023-07-02T10:38:01;51.72;;;22.55;;
16460;SDS011;8341;42.048;24.650;2023-07-02T10:40:28;59.78;;;24.77;;
16460;SDS011;8341;42.048;24.650;2023-07-02T10:42:55;59.72;;;25.42;;
16460;SDS011;8341;42.048;24.650;2023-07-02T10:45:32;37.13;;;17.42;;
16460;SDS011;8341;42.048;24.650;2023-07-02T10:48:01;11.43;;;7.88;;
16460;SDS011;8341;42.048;24.650;2023-07-02T10:50:28;11.15;;;7.63;;
16460;SDS011;8341;42.048;24.650;2023-07-02T10:52:56;12.13;;;8.05;;
16460;SDS011;8341;42.048;24.650;2023-07-02T10:55:24;14.68;;;9.75;;
16460;SDS011;8341;42.048;24.650;2023-07-02T10:58:02;14.48;;;8.15;;
16460;SDS011;8341;42.048;24.650;2023-07-02T11:00:29;11.10;;;8.48;;
16460;SDS011;8341;42.048;24.650;2023-07-02T11:02:58;11.32;;;8.35;;
16460;SDS011;8341;42.048;24.650;2023-07-02T11:05:26;11.90;;;8.27;;
16460;SDS011;8341;42.048;24.650;2023-07-02T11:07:53;11.25;;;8.50;;
16460;SDS011;8341;42.048;24.650;2023-07-02T11:10:22;12.48;;;8.32;;
16460;SDS011;8341;42.048;24.650;2023-07-02T11:12:50;11.60;;;8.40;;
16460;SDS011;8341;42.048;24.650;2023-07-02T11:15:17;12.45;;;8.65;;
16460;SDS011;8341;42.048;24.650;2023-07-02T11:17:46;11.07;;;8.82;;
16460;SDS011;8341;42.048;24.650;2023-07-02T11:20:13;11.55;;;8.50;;
16460;SDS011;8341;42.048;24.650;2023-07-02T11:22:41;10.68;;;8.55;;
16460;SDS011;8341;42.048;24.650;2023-07-02T11:25:09;13.38;;;8.93;;
16460;SDS011;8341;42.048;24.650;2023-07-02T11:27:36;10.73;;;8.10;;
16460;SDS011;8341;42.048;24.650;2023-07-02T11:30:03;11.50;;;8.63;;
16460;SDS011;8341;42.048;24.650;2023-07-02T11:32:31;12.40;;;8.43;;
16460;SDS011;8341;42.048;24.650;2023-07-02T11:35:03;10.77;;;8.30;;
16460;SDS011;8341;42.048;24.650;2023-07-02T11:37:30;10.35;;;8.20;;
16460;SDS011;8341;42.048;24.650;2023-07-02T11:39:57;11.75;;;8.90;;
16460;SDS011;8341;42.048;24.650;2023-07-02T11:42:23;11.43;;;8.10;;
16460;SDS011;8341;42.048;24.650;2023-07-02T11:44:50;13.18;;;9.40;;
16460;SDS011;8341;42.048;24.650;2023-07-02T11:47:17;10.68;;;8.45;;
16460;SDS011;8341;42.048;24.650;2023-07-02T11:49:44;9.90;;;8.18;;
16460;SDS011;8341;42.048;24.650;2023-07-02T11:52:12;13.75;;;9.07;;
16460;SDS011;8341;42.048;24.650;2023-07-02T11:54:39;12.60;;;9.02;;
16460;SDS011;8341;42.048;24.650;2023-07-02T11:57:06;12.43;;;9.32;;
16460;SDS011;8341;42.048;24.650;2023-07-02T11:59:33;12.50;;;9.50;;
16460;SDS011;8341;42.048;24.650;2023-07-02T12:02:01;10.90;;;8.15;;
16460;SDS011;8341;42.048;24.650;2023-07-02T12:04:28;10.93;;;7.97;;
16460;SDS011;8341;42.048;24.650;2023-07-02T12:06:55;12.05;;;8.38;;
16460;SDS011;8341;42.048;24.650;2023-07-02T12:09:24;9.75;;;7.03;;
16460;SDS011;8341;42.048;24.650;2023-07-02T12:11:52;8.95;;;7.30;;
16460;SDS011;8341;42.048;24.650;2023-07-02T12:14:18;11.13;;;8.02;;
16460;SDS011;8341;42.048;24.650;2023-07-02T12:16:45;11.68;;;7.97;;
16460;SDS011;8341;42.048;24.650;2023-07-02T12:19:12;11.05;;;7.90;;
16460;SDS011;8341;42.048;24.650;2023-07-02T12:21:39;11.20;;;8.00;;
16460;SDS011;8341;42.048;24.650;2023-07-02T12:24:05;11.35;;;8.60;;
16460;SDS011;8341;42.048;24.650;2023-07-02T12:26:36;10.45;;;8.30;;
16460;SDS011;8341;42.048;24.650;2023-07-02T12:29:02;11.70;;;8.85;;
16460;SDS011;8341;42.048;24.650;2023-07-02T12:31:30;10.13;;;7.93;;
16460;SDS011;8341;42.048;24.650;2023-07-02T12:33:57;11.43;;;8.32;;
16460;SDS011;8341;42.048;24.650;2023-07-02T12:36:24;8.95;;;7.57;;
16460;SDS011;8341;42.048;24.650;2023-07-02T12:38:50;9.93;;;8.30;;
16460;SDS011;8341;42.048;24.650;2023-07-02T12:41:17;10.00;;;7.47;;
16460;SDS011;8341;42.048;24.650;2023-07-02T12:43:45;7.95;;;7.07;;
16460;SDS011;8341;42.048;24.650;2023-07-02T12:46:12;11.38;;;7.20;;
16460;SDS011;8341;42.048;24.650;2023-07-02T12:48:39;10.25;;;7.85;;
16460;SDS011;8341;42.048;24.650;2023-07-02T12:51:06;8.68;;;7.72;;
16460;SDS011;8341;42.048;24.650;2023-07-02T12:53:32;9.35;;;7.65;;
16460;SDS011;8341;42.048;24.650;2023-07-02T12:55:59;8.73;;;7.30;;
16460;SDS011;8341;42.048;24.650;2023-07-02T12:58:26;10.70;;;8.55;;
16460;SDS011;8341;42.048;24.650;2023-07-02T13:00:54;12.25;;;10.55;;
16460;SDS011;8341;42.048;24.650;2023-07-02T13:03:21;11.23;;;9.05;;
16460;SDS011;8341;42.048;24.650;2023-07-02T13:05:50;8.70;;;7.80;;
16460;SDS011;8341;42.048;24.650;2023-07-02T13:08:17;10.07;;;7.68;;
16460;SDS011;8341;42.048;24.650;2023-07-02T13:10:44;10.82;;;8.50;;
16460;SDS011;8341;42.048;24.650;2023-07-02T13:13:10;9.27;;;8.20;;
16460;SDS011;8341;42.048;24.650;2023-07-02T13:15:37;9.75;;;8.23;;
16460;SDS011;8341;42.048;24.650;2023-07-02T13:18:05;10.75;;;7.82;;
16460;SDS011;8341;42.048;24.650;2023-07-02T13:20:32;8.93;;;7.68;;
16460;SDS011;8341;42.048;24.650;2023-07-02T13:22:59;11.23;;;8.30;;
16460;SDS011;8341;42.048;24.650;2023-07-02T13:25:26;10.43;;;8.15;;
16460;SDS011;8341;42.048;24.650;2023-07-02T13:27:52;11.57;;;7.97;;
16460;SDS011;8341;42.048;24.650;2023-07-02T13:30:19;11.25;;;7.97;;
16460;SDS011;8341;42.048;24.650;2023-07-02T13:32:46;9.70;;;8.40;;
16460;SDS011;8341;42.048;24.650;2023-07-02T13:35:15;11.45;;;8.23;;
16460;SDS011;8341;42.048;24.650;2023-07-02T13:37:41;10.60;;;7.82;;
16460;SDS011;8341;42.048;24.650;2023-07-02T13:40:08;9.27;;;7.95;;
16460;SDS011;8341;42.048;24.650;2023-07-02T13:42:37;9.25;;;7.93;;
16460;SDS011;8341;42.048;24.650;2023-07-02T13:45:05;9.27;;;8.02;;
16460;SDS011;8341;42.048;24.650;2023-07-02T13:47:33;9.50;;;7.93;;
16460;SDS011;8341;42.048;24.650;2023-07-02T13:50:00;10.13;;;8.13;;
16460;SDS011;8341;42.048;24.650;2023-07-02T13:52:28;9.63;;;8.10;;
16460;SDS011;8341;42.048;24.650;2023-07-02T13:54:55;10.65;;;8.27;;
16460;SDS011;8341;42.048;24.650;2023-07-02T13:57:24;8.77;;;7.88;;
16460;SDS011;8341;42.048;24.650;2023-07-02T13:59:52;10.73;;;8.05;;
16460;SDS011;8341;42.048;24.650;2023-07-02T14:02:20;9.68;;;7.28;;
16460;SDS011;8341;42.048;24.650;2023-07-02T14:04:47;10.30;;;7.15;;
16460;SDS011;8341;42.048;24.650;2023-07-02T14:07:13;8.93;;;6.88;;
16460;SDS011;8341;42.048;24.650;2023-07-02T14:09:40;8.88;;;6.75;;
16460;SDS011;8341;42.048;24.650;2023-07-02T14:12:07;10.52;;;6.75;;
16460;SDS011;8341;42.048;24.650;2023-07-02T14:14:34;10.68;;;6.35;;
16460;SDS011;8341;42.048;24.650;2023-07-02T14:17:06;8.40;;;6.40;;
16460;SDS011;8341;42.048;24.650;2023-07-02T14:19:32;9.52;;;6.45;;
16460;SDS011;8341;42.048;24.650;2023-07-02T14:22:00;9.05;;;6.32;;
16460;SDS011;8341;42.048;24.650;2023-07-02T14:24:26;12.20;;;6.03;;
16460;SDS011;8341;42.048;24.650;2023-07-02T14:26:55;7.85;;;5.65;;
16460;SDS011;8341;42.048;24.650;2023-07-02T14:29:22;6.60;;;5.25;;
16460;SDS011;8341;42.048;24.650;2023-07-02T14:31:49;8.93;;;5.70;;
16460;SDS011;8341;42.048;24.650;2023-07-02T14:34:17;9.10;;;6.18;;
16460;SDS011;8341;42.048;24.650;2023-07-02T14:36:44;7.47;;;6.20;;
16460;SDS011;8341;42.048;24.650;2023-07-02T14:39:11;10.57;;;9.40;;
16460;SDS011;8341;42.048;24.650;2023-07-02T14:41:38;11.80;;;9.25;;
16460;SDS011;8341;42.048;24.650;2023-07-02T14:44:05;14.50;;;12.02;;
16460;SDS011;8341;42.048;24.650;2023-07-02T14:46:32;12.38;;;10.35;;